Time;durP1;ratioP1;P1;durP2;ratioP2;P2;SDS_P1;SDS_P2;PMS_P1;PMS_P2;Temp;Humidity;BMP_temperature;BMP_pressure;BME280_temperature;BME280_humidity;BME280_pressure;Samples;Min_cycle;Max_cycle;Signal;HPM_P1;HPM_P2
2021/05/26 00:00:24;;;;;;;1.20;1.10;;;;;;;;;;5033404;28;20472;-79
2021/05/26 00:02:50;;;;;;;2.30;1.42;;;;;;;;;;5033293;28;20057;-78
2021/05/26 00:05:16;;;;;;;0.73;0.60;;;;;;;;;;5033861;28;20034;-79
2021/05/26 00:07:42;;;;;;;1.27;1.13;;;;;;;;;;5032897;28;20029;-78
2021/05/26 00:10:09;;;;;;;2.20;1.40;;;;;;;;;;5032924;28;20033;-79
2021/05/26 00:12:35;;;;;;;1.75;1.00;;;;;;;;;;5016072;28;20029;-79
2021/05/26 00:15:01;;;;;;;1.05;0.95;;;;;;;;;;5033087;28;20037;-78
2021/05/26 00:17:28;;;;;;;0.80;0.80;;;;;;;;;;5033288;28;20037;-79
2021/05/26 00:19:55;;;;;;;3.47;1.08;;;;;;;;;;5032386;28;20033;-79
2021/05/26 00:22:21;;;;;;;1.42;0.90;;;;;;;;;;5033117;28;20029;-79
2021/05/26 00:24:47;;;;;;;0.70;0.70;;;;;;;;;;5032874;28;20045;-79
2021/05/26 00:27:13;;;;;;;1.10;1.00;;;;;;;;;;5033195;28;20021;-79
2021/05/26 00:38:50;;;;;;;1.35;0.60;;;;;;;;;;5032106;28;20229;-78
2021/05/26 00:41:16;;;;;;;1.00;0.85;;;;;;;;;;5032664;28;20077;-79
2021/05/26 00:43:42;;;;;;;1.17;0.77;;;;;;;;;;5032427;28;20040;-79
2021/05/26 00:46:09;;;;;;;1.50;0.80;;;;;;;;;;5032889;28;20061;-79
2021/05/26 00:48:35;;;;;;;3.88;1.58;;;;;;;;;;5048317;28;20367;-79
2021/05/26 00:51:01;;;;;;;1.20;1.02;;;;;;;;;;5052317;28;20691;-78
2021/05/26 00:53:28;;;;;;;1.27;0.95;;;;;;;;;;5052775;28;20029;-79
2021/05/26 00:55:55;;;;;;;1.48;1.35;;;;;;;;;;5051961;28;20029;-79
2021/05/26 00:58:21;;;;;;;2.22;1.00;;;;;;;;;;5051948;28;20108;-79
2021/05/26 01:00:47;;;;;;;1.33;1.00;;;;;;;;;;5052062;28;20106;-79
2021/05/26 01:03:14;;;;;;;3.10;2.08;;;;;;;;;;5052548;28;20395;-79
2021/05/26 01:05:40;;;;;;;1.50;0.73;;;;;;;;;;5052198;28;20040;-78
2021/05/26 01:08:06;;;;;;;1.40;1.23;;;;;;;;;;5051186;28;20025;-79
2021/05/26 01:10:33;;;;;;;1.00;1.00;;;;;;;;;;5051728;28;20032;-79
2021/05/26 01:12:59;;;;;;;2.35;1.00;;;;;;;;;;5051819;28;20025;-79
2021/05/26 01:15:25;;;;;;;0.95;0.80;;;;;;;;;;5052447;28;20028;-79
2021/05/26 01:17:52;;;;;;;0.60;0.60;;;;;;;;;;5051605;28;20025;-79
2021/05/26 01:20:28;;;;;;;3.13;1.52;;;;;;;;;;5051547;28;20017;-79
2021/05/26 01:22:56;;;;;;;1.17;0.60;;;;;;;;;;5051825;28;20104;-79
2021/05/26 01:25:23;;;;;;;2.85;1.25;;;;;;;;;;5051921;28;20045;-79
2021/05/26 01:27:49;;;;;;;0.98;0.95;;;;;;;;;;5051320;28;20028;-78
2021/05/26 01:30:16;;;;;;;0.98;0.70;;;;;;;;;;5035367;28;20163;-79
2021/05/26 01:32:48;;;;;;;1.67;1.27;;;;;;;;;;5031520;28;20124;-79
2021/05/26 01:35:15;;;;;;;1.57;0.73;;;;;;;;;;5032143;28;20029;-79
2021/05/26 01:37:42;;;;;;;2.33;1.30;;;;;;;;;;5031114;28;20045;-79
2021/05/26 01:40:10;;;;;;;1.75;1.10;;;;;;;;;;5030910;28;20532;-79
2021/05/26 01:42:36;;;;;;;0.80;0.70;;;;;;;;;;5031921;28;20128;-79
2021/05/26 01:45:04;;;;;;;2.03;0.98;;;;;;;;;;5031477;28;20064;-79
2021/05/26 01:47:30;;;;;;;1.92;0.93;;;;;;;;;;5031801;28;20025;-79
2021/05/26 01:49:56;;;;;;;2.67;1.25;;;;;;;;;;5030833;28;20531;-79
2021/05/26 01:52:22;;;;;;;1.60;0.90;;;;;;;;;;5032163;28;20026;-79
2021/05/26 01:54:49;;;;;;;1.52;1.00;;;;;;;;;;5031413;28;20163;-79
2021/05/26 01:57:15;;;;;;;1.80;1.00;;;;;;;;;;5031586;28;20026;-78
2021/05/26 01:59:41;;;;;;;1.38;0.90;;;;;;;;;;5030585;28;20111;-78
2021/05/26 02:02:07;;;;;;;1.33;0.82;;;;;;;;;;5031348;28;20045;-79
2021/05/26 02:04:34;;;;;;;0.88;0.88;;;;;;;;;;5031556;28;20037;-79
2021/05/26 02:07:02;;;;;;;2.03;1.15;;;;;;;;;;5031214;28;20084;-79
2021/05/26 02:09:28;;;;;;;0.68;0.65;;;;;;;;;;5030675;28;20025;-79
2021/05/26 02:14:39;;;;;;;2.13;1.00;;;;;;;;;;5031347;28;20040;-79
2021/05/26 02:17:05;;;;;;;1.05;0.65;;;;;;;;;;5031204;28;20021;-79
2021/05/26 02:19:31;;;;;;;0.45;0.45;;;;;;;;;;5030652;28;20465;-79
2021/05/26 02:21:57;;;;;;;1.08;0.73;;;;;;;;;;5030771;28;20423;-79
2021/05/26 02:24:23;;;;;;;1.98;1.00;;;;;;;;;;5031010;28;20044;-79
2021/05/26 02:26:49;;;;;;;0.93;0.75;;;;;;;;;;5030726;28;20064;-79
2021/05/26 02:29:15;;;;;;;1.35;1.23;;;;;;;;;;5030662;28;20033;-79
2021/05/26 02:31:41;;;;;;;0.70;0.70;;;;;;;;;;5031337;28;20029;-78
2021/05/26 02:34:07;;;;;;;2.75;1.23;;;;;;;;;;5031131;28;20061;-79
2021/05/26 02:36:33;;;;;;;2.50;1.05;;;;;;;;;;5036340;28;20045;-79
2021/05/26 02:38:59;;;;;;;1.38;0.88;;;;;;;;;;5050043;28;20033;-79
2021/05/26 02:41:25;;;;;;;1.08;0.85;;;;;;;;;;5050516;28;20036;-79
2021/05/26 02:43:51;;;;;;;5.05;1.38;;;;;;;;;;5050288;28;20082;-79
2021/05/26 02:46:17;;;;;;;1.25;1.15;;;;;;;;;;5051032;28;20065;-79
2021/05/26 02:48:43;;;;;;;3.17;1.55;;;;;;;;;;5032934;28;20030;-78
2021/05/26 02:51:10;;;;;;;1.42;1.33;;;;;;;;;;5030656;28;20453;-79
2021/05/26 02:53:36;;;;;;;1.50;1.20;;;;;;;;;;5030927;28;20026;-79
2021/05/26 02:56:02;;;;;;;1.27;0.77;;;;;;;;;;5030682;28;20029;-79
2021/05/26 02:58:28;;;;;;;1.05;0.95;;;;;;;;;;5030283;28;20108;-79
2021/05/26 03:00:54;;;;;;;0.90;0.77;;;;;;;;;;5030354;28;20083;-79
2021/05/26 03:03:20;;;;;;;0.98;0.85;;;;;;;;;;5031012;28;20479;-79
2021/05/26 03:05:46;;;;;;;2.10;1.05;;;;;;;;;;5030592;28;20460;-78
2021/05/26 03:08:12;;;;;;;1.23;0.80;;;;;;;;;;5030727;28;20038;-79
2021/05/26 03:10:38;;;;;;;0.73;0.63;;;;;;;;;;5030365;28;20468;-78
2021/05/26 03:13:04;;;;;;;1.70;0.80;;;;;;;;;;5030760;28;20061;-79
2021/05/26 03:15:30;;;;;;;0.85;0.85;;;;;;;;;;5030965;28;20036;-78
2021/05/26 03:17:56;;;;;;;1.70;0.93;;;;;;;;;;5030225;28;20032;-79
2021/05/26 03:20:22;;;;;;;2.40;0.90;;;;;;;;;;5030100;28;20488;-79
2021/05/26 03:22:48;;;;;;;4.78;1.35;;;;;;;;;;5030028;28;20018;-78
2021/05/26 03:25:15;;;;;;;2.20;1.00;;;;;;;;;;5030428;28;20057;-79
2021/05/26 03:27:41;;;;;;;2.42;0.95;;;;;;;;;;5029916;28;20547;-79
2021/05/26 03:30:12;;;;;;;2.08;0.95;;;;;;;;;;5045174;28;20025;-79
2021/05/26 03:32:39;;;;;;;1.20;0.98;;;;;;;;;;5054304;28;20171;-79
2021/05/26 03:35:06;;;;;;;1.40;1.15;;;;;;;;;;5053924;28;20028;-78
2021/05/26 03:37:32;;;;;;;0.90;0.80;;;;;;;;;;5053485;28;20128;-79
2021/05/26 03:39:58;;;;;;;1.50;0.70;;;;;;;;;;5053090;28;20036;-78
2021/05/26 03:42:24;;;;;;;1.35;1.10;;;;;;;;;;5053870;28;20494;-79
2021/05/26 03:44:50;;;;;;;1.25;0.90;;;;;;;;;;5053572;28;20037;-79
2021/05/26 03:47:17;;;;;;;1.60;0.85;;;;;;;;;;5053918;28;20021;-79
2021/05/26 03:49:43;;;;;;;1.52;0.68;;;;;;;;;;5052942;28;20029;-79
2021/05/26 03:52:10;;;;;;;2.70;0.95;;;;;;;;;;5054029;28;20049;-78
2021/05/26 03:54:36;;;;;;;1.10;0.68;;;;;;;;;;5049948;28;20076;-79
2021/05/26 03:57:03;;;;;;;0.82;0.77;;;;;;;;;;5033652;28;20092;-79
2021/05/26 03:59:29;;;;;;;1.08;0.98;;;;;;;;;;5033231;28;20455;-79
2021/05/26 04:01:55;;;;;;;1.38;1.05;;;;;;;;;;5033176;28;20025;-79
2021/05/26 04:04:21;;;;;;;1.20;0.70;;;;;;;;;;5033793;28;20121;-79
2021/05/26 04:06:47;;;;;;;1.58;0.90;;;;;;;;;;5033416;28;20033;-79
2021/05/26 04:09:13;;;;;;;1.27;1.17;;;;;;;;;;5033140;28;20688;-79
2021/05/26 04:11:40;;;;;;;1.52;1.35;;;;;;;;;;5033094;28;20021;-78
2021/05/26 04:14:06;;;;;;;1.15;0.77;;;;;;;;;;5033710;28;20095;-78
2021/05/26 04:16:32;;;;;;;1.45;1.10;;;;;;;;;;5033332;28;20555;-79
2021/05/26 04:18:58;;;;;;;1.83;1.00;;;;;;;;;;5032663;28;20032;-79
2021/05/26 04:21:24;;;;;;;1.30;1.20;;;;;;;;;;5033272;28;20033;-79
2021/05/26 04:23:50;;;;;;;1.67;1.13;;;;;;;;;;5032743;28;20060;-78
2021/05/26 04:26:16;;;;;;;1.30;1.02;;;;;;;;;;5033110;28;20035;-79
2021/05/26 04:28:43;;;;;;;1.60;1.08;;;;;;;;;;5032045;28;20544;-78
2021/05/26 04:31:10;;;;;;;2.15;0.93;;;;;;;;;;5032856;28;20049;-78
2021/05/26 04:33:36;;;;;;;2.10;1.58;;;;;;;;;;5033071;28;20021;-79
2021/05/26 04:36:02;;;;;;;3.35;1.15;;;;;;;;;;5033739;28;20099;-79
2021/05/26 04:38:28;;;;;;;1.42;0.70;;;;;;;;;;5052651;28;20036;-79
2021/05/26 04:40:54;;;;;;;1.88;0.80;;;;;;;;;;5052083;28;20082;-79
2021/05/26 04:43:20;;;;;;;3.42;1.67;;;;;;;;;;5051804;28;20468;-79
2021/05/26 04:45:47;;;;;;;1.33;0.90;;;;;;;;;;5052552;28;20029;-79
2021/05/26 04:48:13;;;;;;;1.40;1.00;;;;;;;;;;5052322;28;20491;-79
2021/05/26 04:50:40;;;;;;;1.55;0.80;;;;;;;;;;5052304;28;20071;-78
2021/05/26 04:53:06;;;;;;;1.55;1.45;;;;;;;;;;5052547;28;20032;-79
2021/05/26 04:55:32;;;;;;;1.42;1.08;;;;;;;;;;5052806;28;20029;-79
2021/05/26 04:57:59;;;;;;;1.88;1.13;;;;;;;;;;5052156;28;20056;-79
2021/05/26 05:00:26;;;;;;;1.42;1.30;;;;;;;;;;5052173;28;20036;-79
2021/05/26 05:02:53;;;;;;;1.55;1.45;;;;;;;;;;5052104;28;20104;-78
2021/05/26 05:05:19;;;;;;;1.38;1.27;;;;;;;;;;5052371;28;20483;-79
2021/05/26 05:07:45;;;;;;;1.95;0.70;;;;;;;;;;5052090;28;20024;-79
2021/05/26 05:10:11;;;;;;;1.00;0.90;;;;;;;;;;5051780;28;20025;-78
2021/05/26 05:12:37;;;;;;;1.33;1.08;;;;;;;;;;5052460;28;20041;-78
2021/05/26 05:15:04;;;;;;;0.70;0.68;;;;;;;;;;5052132;28;20640;-79
2021/05/26 05:17:30;;;;;;;1.70;1.17;;;;;;;;;;5052476;28;20029;-78
2021/05/26 05:19:56;;;;;;;1.00;0.70;;;;;;;;;;5051535;28;20091;-79
2021/05/26 05:22:22;;;;;;;2.75;1.05;;;;;;;;;;5052084;28;20376;-79
2021/05/26 05:24:48;;;;;;;1.15;1.10;;;;;;;;;;5051668;28;20059;-79
2021/05/26 05:27:14;;;;;;;0.88;0.77;;;;;;;;;;5051745;28;20029;-79
2021/05/26 05:29:40;;;;;;;1.00;0.90;;;;;;;;;;5050694;28;20483;-78
2021/05/26 05:32:07;;;;;;;1.45;0.75;;;;;;;;;;5051987;28;20032;-79
2021/05/26 05:34:33;;;;;;;4.13;1.98;;;;;;;;;;5051989;28;20029;-79
2021/05/26 05:36:59;;;;;;;2.97;1.27;;;;;;;;;;5042030;28;20475;-79
2021/05/26 05:39:25;;;;;;;1.95;0.90;;;;;;;;;;5031400;28;20035;-79
2021/05/26 05:41:51;;;;;;;2.53;0.90;;;;;;;;;;5031231;28;20030;-78
2021/05/26 05:44:17;;;;;;;1.08;0.50;;;;;;;;;;5031537;28;20044;-78
2021/05/26 05:46:43;;;;;;;1.80;0.68;;;;;;;;;;5031310;28;20488;-79
2021/05/26 05:49:09;;;;;;;1.30;1.20;;;;;;;;;;5031134;28;20033;-79
2021/05/26 05:51:35;;;;;;;2.30;1.40;;;;;;;;;;5027917;28;20038;-79
2021/05/26 05:54:01;;;;;;;2.72;1.50;;;;;;;;;;5030109;28;20420;-79
2021/05/26 05:56:27;;;;;;;3.17;1.55;;;;;;;;;;5018803;28;20099;-79
2021/05/26 05:58:54;;;;;;;3.95;2.35;;;;;;;;;;5029433;28;20040;-79
2021/05/26 06:01:20;;;;;;;4.80;1.70;;;;;;;;;;5029457;28;20034;-79
2021/05/26 06:03:46;;;;;;;1.63;1.45;;;;;;;;;;5029639;28;20037;-78
2021/05/26 06:06:12;;;;;;;2.28;0.98;;;;;;;;;;5036682;28;20025;-79
2021/05/26 06:08:38;;;;;;;1.92;1.05;;;;;;;;;;5049960;28;20503;-79
2021/05/26 06:11:04;;;;;;;1.25;1.10;;;;;;;;;;5032554;28;20032;-79
2021/05/26 06:13:30;;;;;;;2.17;1.55;;;;;;;;;;5027007;28;20029;-79
2021/05/26 06:15:56;;;;;;;4.68;1.88;;;;;;;;;;5027048;28;20087;-78
2021/05/26 06:18:22;;;;;;;2.85;1.85;;;;;;;;;;5030200;28;20025;-78
2021/05/26 06:20:49;;;;;;;2.50;1.83;;;;;;;;;;5042380;28;20060;-78
2021/05/26 06:23:15;;;;;;;2.10;1.92;;;;;;;;;;5027617;28;20037;-78
2021/05/26 06:25:41;;;;;;;4.25;1.70;;;;;;;;;;5038393;28;20033;-79
2021/05/26 06:28:07;;;;;;;2.72;1.85;;;;;;;;;;5031016;28;20024;-79
2021/05/26 06:30:33;;;;;;;9.13;2.63;;;;;;;;;;5030405;28;20029;-78
2021/05/26 06:32:59;;;;;;;4.50;2.60;;;;;;;;;;5048899;28;20031;-79
2021/05/26 06:35:25;;;;;;;13.05;2.47;;;;;;;;;;5047828;28;20025;-78
2021/05/26 06:37:51;;;;;;;2.63;1.30;;;;;;;;;;5044989;28;20048;-79
2021/05/26 06:40:17;;;;;;;2.47;1.30;;;;;;;;;;5046408;28;20430;-80
2021/05/26 06:42:44;;;;;;;4.03;2.25;;;;;;;;;;5050277;28;20026;-79
2021/05/26 06:45:10;;;;;;;3.45;1.52;;;;;;;;;;5033413;28;20033;-81
2021/05/26 06:47:36;;;;;;;2.47;1.70;;;;;;;;;;5040863;28;20063;-78
2021/05/26 06:50:03;;;;;;;5.90;2.50;;;;;;;;;;5035306;28;20040;-79
2021/05/26 06:52:31;;;;;;;4.43;2.00;;;;;;;;;;5034545;28;21314;-76
2021/05/26 06:54:57;;;;;;;9.27;2.38;;;;;;;;;;5036973;28;20029;-78
2021/05/26 06:57:23;;;;;;;2.53;2.05;;;;;;;;;;5036783;28;20160;-79
2021/05/26 06:59:49;;;;;;;3.38;1.63;;;;;;;;;;5027894;28;20025;-78
2021/05/26 07:02:15;;;;;;;6.78;2.83;;;;;;;;;;5033589;28;20039;-78
2021/05/26 07:04:41;;;;;;;3.63;1.63;;;;;;;;;;5028750;28;20037;-79
2021/05/26 07:07:08;;;;;;;1.52;1.33;;;;;;;;;;5035223;28;20055;-80
2021/05/26 07:09:34;;;;;;;4.38;2.35;;;;;;;;;;5030201;28;20028;-80
2021/05/26 07:12:00;;;;;;;2.90;1.65;;;;;;;;;;5043724;28;20038;-80
2021/05/26 07:14:26;;;;;;;6.00;2.50;;;;;;;;;;5031892;28;20041;-80
2021/05/26 07:16:52;;;;;;;3.70;1.67;;;;;;;;;;5037888;28;20036;-79
2021/05/26 07:19:18;;;;;;;2.80;1.40;;;;;;;;;;5035708;28;20021;-81
2021/05/26 07:21:44;;;;;;;4.18;2.28;;;;;;;;;;5037583;28;20033;-79
2021/05/26 07:24:10;;;;;;;5.35;1.80;;;;;;;;;;5029840;28;20069;-83
2021/05/26 07:26:36;;;;;;;2.95;1.33;;;;;;;;;;5028871;28;20032;-81
2021/05/26 07:29:02;;;;;;;2.00;1.27;;;;;;;;;;5024994;28;20044;-81
2021/05/26 07:31:28;;;;;;;6.57;2.55;;;;;;;;;;5042970;28;20037;-82
2021/05/26 07:33:55;;;;;;;7.65;3.13;;;;;;;;;;5042294;28;20463;-81
2021/05/26 07:36:21;;;;;;;6.28;2.45;;;;;;;;;;5040151;28;20587;-82
2021/05/26 07:38:47;;;;;;;2.80;1.80;;;;;;;;;;5039579;28;20100;-81
2021/05/26 07:41:13;;;;;;;2.33;1.73;;;;;;;;;;5035995;28;20051;-81
2021/05/26 07:43:43;;;;;;;10.15;2.03;;;;;;;;;;5030154;28;20116;-81
2021/05/26 07:46:09;;;;;;;4.90;2.25;;;;;;;;;;5027187;28;20512;-80
2021/05/26 07:48:36;;;;;;;3.80;1.25;;;;;;;;;;5030988;28;20021;-80
2021/05/26 07:51:04;;;;;;;3.20;1.50;;;;;;;;;;5036000;28;20033;-79
2021/05/26 07:53:30;;;;;;;5.60;2.13;;;;;;;;;;5035643;28;20037;-80
2021/05/26 07:55:57;;;;;;;4.05;1.90;;;;;;;;;;5029889;28;20703;-81
2021/05/26 07:58:23;;;;;;;3.88;1.80;;;;;;;;;;5028600;28;20101;-80
2021/05/26 08:00:49;;;;;;;5.38;2.40;;;;;;;;;;5019184;28;20106;-81
2021/05/26 08:03:15;;;;;;;2.72;1.50;;;;;;;;;;5023736;28;20021;-80
2021/05/26 08:05:41;;;;;;;4.90;1.88;;;;;;;;;;5031447;28;20061;-79
2021/05/26 08:08:07;;;;;;;2.33;1.33;;;;;;;;;;5020741;28;20025;-79
2021/05/26 08:10:33;;;;;;;3.85;1.85;;;;;;;;;;5039115;28;20041;-78
2021/05/26 08:13:00;;;;;;;8.20;1.85;;;;;;;;;;5031590;28;20033;-80
2021/05/26 08:15:26;;;;;;;6.55;2.83;;;;;;;;;;5040239;28;20446;-79
2021/05/26 08:17:53;;;;;;;2.97;1.83;;;;;;;;;;5030281;28;20033;-81
2021/05/26 08:20:19;;;;;;;2.55;1.80;;;;;;;;;;5041414;28;20040;-79
2021/05/26 08:22:45;;;;;;;1.67;1.35;;;;;;;;;;5032191;28;20044;-80
2021/05/26 08:25:11;;;;;;;3.65;2.25;;;;;;;;;;5039935;28;20075;-78
2021/05/26 08:27:38;;;;;;;2.25;1.75;;;;;;;;;;5039616;28;20033;-78
2021/05/26 08:30:05;;;;;;;9.68;2.50;;;;;;;;;;5031098;28;20038;-78
2021/05/26 08:32:31;;;;;;;3.83;1.92;;;;;;;;;;5036206;28;20056;-79
2021/05/26 08:34:58;;;;;;;4.93;2.75;;;;;;;;;;5036349;28;20039;-79
2021/05/26 08:37:24;;;;;;;2.97;2.45;;;;;;;;;;5033372;28;20052;-79
2021/05/26 08:39:50;;;;;;;7.55;3.10;;;;;;;;;;5037187;28;20120;-78
2021/05/26 08:42:17;;;;;;;3.63;2.47;;;;;;;;;;5031612;28;20041;-78
2021/05/26 08:44:43;;;;;;;2.10;1.77;;;;;;;;;;5028171;28;20528;-77
2021/05/26 08:47:14;;;;;;;2.65;1.80;;;;;;;;;;5037577;28;20040;-82
2021/05/26 08:49:43;;;;;;;5.53;2.15;;;;;;;;;;5030761;28;20519;-80
2021/05/26 08:52:09;;;;;;;3.92;1.88;;;;;;;;;;5039093;28;20032;-79
2021/05/26 08:54:35;;;;;;;8.57;2.75;;;;;;;;;;5033589;28;20099;-79
2021/05/26 08:57:01;;;;;;;4.57;1.95;;;;;;;;;;5037298;28;20035;-79
2021/05/26 08:59:27;;;;;;;3.05;2.17;;;;;;;;;;5035337;28;20040;-79
2021/05/26 09:01:53;;;;;;;4.68;1.85;;;;;;;;;;5037866;28;20048;-84
2021/05/26 09:04:29;;;;;;;2.80;1.80;;;;;;;;;;5042218;28;20033;-84
2021/05/26 09:07:29;;;;;;;6.28;2.83;;;;;;;;;;5019947;28;20033;-88
2021/05/26 09:09:57;;;;;;;2.40;1.98;;;;;;;;;;5023071;28;21463;-85
2021/05/26 09:12:44;;;;;;;2.55;1.75;;;;;;;;;;5035182;28;20033;-85
2021/05/26 09:15:15;;;;;;;3.45;2.10;;;;;;;;;;5029225;28;20033;-84
2021/05/26 09:18:00;;;;;;;3.25;2.05;;;;;;;;;;5020970;28;20081;-85
2021/05/26 09:20:27;;;;;;;2.10;1.90;;;;;;;;;;5038620;28;20029;-84
2021/05/26 09:23:01;;;;;;;3.97;1.48;;;;;;;;;;5026410;28;20063;-84
2021/05/26 09:25:28;;;;;;;2.00;1.55;;;;;;;;;;5027958;28;20065;-85
2021/05/26 09:28:29;;;;;;;3.28;2.20;;;;;;;;;;5025922;28;20033;-84
2021/05/26 09:31:05;;;;;;;7.28;2.72;;;;;;;;;;4983305;28;20520;-86
2021/05/26 09:36:12;;;;;;;5.57;2.60;;;;;;;;;;5001325;28;20193;-68
2021/05/26 09:38:39;;;;;;;8.20;2.55;;;;;;;;;;5011218;28;20052;-66
2021/05/26 09:41:09;;;;;;;6.15;2.47;;;;;;;;;;5010812;28;20033;-66
2021/05/26 09:43:39;;;;;;;14.27;6.10;;;;;;;;;;5014687;28;20037;-67
2021/05/26 09:46:18;;;;;;;3.88;3.53;;;;;;;;;;5015852;28;20045;-66
2021/05/26 09:48:58;;;;;;;13.52;4.13;;;;;;;;;;5017449;28;20025;-65
2021/05/26 09:51:28;;;;;;;6.82;2.53;;;;;;;;;;5017293;28;20030;-68
2021/05/26 09:54:07;;;;;;;6.90;2.88;;;;;;;;;;5016288;28;20044;-66
2021/05/26 09:56:33;;;;;;;6.53;3.20;;;;;;;;;;5012472;28;20048;-66
2021/05/26 09:59:01;;;;;;;5.05;2.88;;;;;;;;;;5017405;28;20032;-65
2021/05/26 10:01:27;;;;;;;8.13;2.95;;;;;;;;;;5018615;28;20136;-65
2021/05/26 10:03:53;;;;;;;5.57;2.20;;;;;;;;;;5017022;28;20048;-66
2021/05/26 10:06:20;;;;;;;5.20;3.50;;;;;;;;;;5015875;28;20029;-66
2021/05/26 10:08:47;;;;;;;5.60;2.28;;;;;;;;;;5017529;28;20495;-66
2021/05/26 10:11:13;;;;;;;5.55;3.60;;;;;;;;;;5016006;28;20032;-65
2021/05/26 10:13:40;;;;;;;7.60;3.03;;;;;;;;;;5019681;28;20438;-69
2021/05/26 10:16:06;;;;;;;5.80;2.45;;;;;;;;;;5015663;28;20029;-66
2021/05/26 10:18:34;;;;;;;5.00;2.63;;;;;;;;;;5017698;28;20037;-65
2021/05/26 10:21:00;;;;;;;6.10;2.25;;;;;;;;;;5011947;28;20086;-65
2021/05/26 10:23:26;;;;;;;11.98;3.03;;;;;;;;;;5013097;28;20037;-66
2021/05/26 10:25:53;;;;;;;4.35;2.20;;;;;;;;;;5016125;28;20142;-66
2021/05/26 10:28:33;;;;;;;6.57;3.10;;;;;;;;;;5015504;28;20184;-66
2021/05/26 10:31:01;;;;;;;4.85;2.47;;;;;;;;;;5030205;28;20043;-66
2021/05/26 10:33:42;;;;;;;3.20;2.22;;;;;;;;;;5042014;28;20052;-65
2021/05/26 10:36:10;;;;;;;4.63;2.00;;;;;;;;;;5040390;28;20215;-66
2021/05/26 10:38:59;;;;;;;3.88;2.35;;;;;;;;;;5040670;28;20594;-66
2021/05/26 10:41:26;;;;;;;5.95;2.05;;;;;;;;;;5044222;28;20041;-66
2021/05/26 10:43:56;;;;;;;3.92;1.92;;;;;;;;;;5046340;28;20028;-66
2021/05/26 10:46:33;;;;;;;4.43;2.17;;;;;;;;;;5044555;28;20029;-66
2021/05/26 10:48:59;;;;;;;3.80;1.52;;;;;;;;;;5046853;28;20037;-65
2021/05/26 10:52:01;;;;;;;6.55;2.67;;;;;;;;;;5045433;28;20029;-66
2021/05/26 10:54:39;;;;;;;3.85;2.08;;;;;;;;;;4965676;28;20493;-66
2021/05/26 10:57:07;;;;;;;4.75;2.53;;;;;;;;;;5027434;28;20479;-66
2021/05/26 10:59:33;;;;;;;3.70;2.65;;;;;;;;;;5045697;28;20471;-66
2021/05/26 11:02:05;;;;;;;7.07;3.17;;;;;;;;;;5046181;28;20040;-66
2021/05/26 11:04:35;;;;;;;5.33;3.20;;;;;;;;;;5045442;28;20045;-66
2021/05/26 11:07:20;;;;;;;5.55;2.33;;;;;;;;;;5045184;28;20083;-66
2021/05/26 11:09:57;;;;;;;7.72;3.25;;;;;;;;;;5046143;28;20438;-66
2021/05/26 11:12:23;;;;;;;10.25;4.40;;;;;;;;;;5044973;28;20031;-66
2021/05/26 11:14:53;;;;;;;7.60;3.40;;;;;;;;;;5046068;28;20517;-66
2021/05/26 11:17:21;;;;;;;7.30;3.55;;;;;;;;;;5042177;28;20033;-66
2021/05/26 11:19:48;;;;;;;4.30;3.22;;;;;;;;;;5046409;28;20025;-68
2021/05/26 11:22:15;;;;;;;5.05;3.50;;;;;;;;;;5046660;28;20492;-66
2021/05/26 11:24:45;;;;;;;5.50;2.97;;;;;;;;;;5042672;28;20041;-67
2021/05/26 11:27:14;;;;;;;5.45;2.80;;;;;;;;;;5044608;28;20111;-66
2021/05/26 11:29:40;;;;;;;4.20;2.88;;;;;;;;;;5046527;28;20780;-66
2021/05/26 11:32:10;;;;;;;6.80;3.30;;;;;;;;;;5047108;28;20115;-65
2021/05/26 11:34:37;;;;;;;6.18;3.38;;;;;;;;;;5045253;28;20053;-65
2021/05/26 11:37:04;;;;;;;9.75;3.38;;;;;;;;;;5044379;28;20037;-65
2021/05/26 11:39:32;;;;;;;36.55;4.43;;;;;;;;;;5045905;28;21717;-66
2021/05/26 11:42:07;;;;;;;6.40;2.72;;;;;;;;;;5045042;28;20048;-65
2021/05/26 11:44:35;;;;;;;10.18;3.15;;;;;;;;;;5045548;28;20135;-65
2021/05/26 11:47:02;;;;;;;7.18;3.13;;;;;;;;;;5040405;28;20036;-66
2021/05/26 11:49:28;;;;;;;5.20;4.05;;;;;;;;;;5044344;28;20487;-65
2021/05/26 11:52:01;;;;;;;5.85;2.92;;;;;;;;;;5040829;28;20029;-66
2021/05/26 11:54:27;;;;;;;9.60;3.33;;;;;;;;;;5037874;28;20037;-66
2021/05/26 11:57:00;;;;;;;6.03;2.97;;;;;;;;;;5044164;28;20102;-70
2021/05/26 11:59:27;;;;;;;9.38;3.97;;;;;;;;;;5045293;28;20102;-66
2021/05/26 12:01:53;;;;;;;9.43;3.80;;;;;;;;;;5045917;28;20380;-67
2021/05/26 12:04:21;;;;;;;9.50;3.45;;;;;;;;;;5041177;28;20036;-70
2021/05/26 12:06:47;;;;;;;12.43;4.03;;;;;;;;;;5043393;28;20033;-67
2021/05/26 12:09:28;;;;;;;8.85;3.45;;;;;;;;;;5050470;28;20025;-67
2021/05/26 12:11:54;;;;;;;6.78;3.17;;;;;;;;;;5030883;28;20045;-66
2021/05/26 12:14:27;;;;;;;10.57;4.38;;;;;;;;;;5029773;28;20120;-67
2021/05/26 12:16:54;;;;;;;20.65;5.25;;;;;;;;;;5029944;28;20038;-66
2021/05/26 12:19:20;;;;;;;8.48;2.67;;;;;;;;;;5039974;28;20029;-66
2021/05/26 12:21:47;;;;;;;5.85;2.70;;;;;;;;;;5050466;28;20031;-66
2021/05/26 12:24:14;;;;;;;7.57;3.80;;;;;;;;;;5050636;28;20024;-66
2021/05/26 12:26:45;;;;;;;6.95;3.63;;;;;;;;;;5031587;28;20144;-66
2021/05/26 12:29:11;;;;;;;7.97;3.95;;;;;;;;;;5050653;28;20474;-66
2021/05/26 12:31:38;;;;;;;9.55;3.80;;;;;;;;;;5049788;28;20036;-66
2021/05/26 12:34:14;;;;;;;9.68;3.00;;;;;;;;;;5050330;28;20064;-66
2021/05/26 12:36:47;;;;;;;5.57;4.18;;;;;;;;;;5049979;28;20478;-66
2021/05/26 12:39:13;;;;;;;13.27;4.07;;;;;;;;;;5050141;28;20112;-67
2021/05/26 12:41:40;;;;;;;6.63;3.40;;;;;;;;;;5049476;28;20037;-69
2021/05/26 12:44:08;;;;;;;7.75;4.30;;;;;;;;;;5050333;28;20025;-66
2021/05/26 12:46:45;;;;;;;17.95;3.95;;;;;;;;;;5048793;28;20036;-66
2021/05/26 12:51:56;;;;;;;5.32;4.30;;;;;;;;;;5049765;28;20534;-66
2021/05/26 12:54:22;;;;;;;13.85;4.53;;;;;;;;;;5049294;28;20550;-66
2021/05/26 12:57:03;;;;;;;14.27;3.50;;;;;;;;;;5050218;28;20369;-67
2021/05/26 12:59:36;;;;;;;10.63;3.67;;;;;;;;;;5045676;28;20485;-66
2021/05/26 13:02:03;;;;;;;6.25;3.03;;;;;;;;;;5042089;28;20104;-66
2021/05/26 13:04:29;;;;;;;4.20;3.67;;;;;;;;;;5043533;28;20044;-66
2021/05/26 13:06:55;;;;;;;9.38;3.90;;;;;;;;;;5049742;28;20043;-66
2021/05/26 13:09:28;;;;;;;6.88;3.50;;;;;;;;;;5048520;28;20025;-66
2021/05/26 13:11:54;;;;;;;7.28;4.20;;;;;;;;;;5049431;28;20024;-67
2021/05/26 13:14:27;;;;;;;5.72;3.95;;;;;;;;;;5048645;28;20029;-72
2021/05/26 13:16:53;;;;;;;7.90;3.25;;;;;;;;;;5049530;28;20086;-66
2021/05/26 13:19:19;;;;;;;10.60;4.05;;;;;;;;;;5048744;28;20032;-66
2021/05/26 13:21:46;;;;;;;8.40;4.13;;;;;;;;;;5049721;28;20021;-66
2021/05/26 13:24:12;;;;;;;7.25;3.65;;;;;;;;;;5049480;28;20115;-66
2021/05/26 13:26:38;;;;;;;8.90;3.65;;;;;;;;;;5048814;28;20192;-66
2021/05/26 13:32:09;;;;;;;7.03;4.20;;;;;;;;;;5049561;28;20032;-66
2021/05/26 13:34:35;;;;;;;8.73;4.03;;;;;;;;;;5048140;28;20059;-66
2021/05/26 13:37:01;;;;;;;13.15;3.47;;;;;;;;;;5049480;28;20025;-66
2021/05/26 13:39:28;;;;;;;10.25;4.00;;;;;;;;;;5048030;28;20036;-67
2021/05/26 13:41:54;;;;;;;11.50;4.20;;;;;;;;;;5049044;28;20032;-67
2021/05/26 13:44:20;;;;;;;6.55;3.28;;;;;;;;;;5048257;28;20043;-67
2021/05/26 13:46:46;;;;;;;8.65;3.75;;;;;;;;;;5048574;28;20032;-67
2021/05/26 13:49:12;;;;;;;8.82;3.78;;;;;;;;;;5049300;28;20112;-68
2021/05/26 13:51:38;;;;;;;7.43;5.00;;;;;;;;;;5047600;28;20040;-66
2021/05/26 13:54:04;;;;;;;9.02;4.05;;;;;;;;;;5048706;28;20099;-66
2021/05/26 13:56:30;;;;;;;7.03;4.53;;;;;;;;;;5047511;28;20029;-66
2021/05/26 13:58:56;;;;;;;10.00;3.55;;;;;;;;;;5048614;28;20060;-66
2021/05/26 14:01:22;;;;;;;7.63;3.95;;;;;;;;;;5047337;28;20478;-66
2021/05/26 14:03:48;;;;;;;10.57;4.05;;;;;;;;;;5048373;28;20055;-66
2021/05/26 14:06:14;;;;;;;7.40;3.80;;;;;;;;;;5048220;28;20037;-67
2021/05/26 14:08:40;;;;;;;6.57;4.20;;;;;;;;;;5048176;28;20098;-66
2021/05/26 14:11:07;;;;;;;8.07;4.15;;;;;;;;;;5048042;28;20193;-67
2021/05/26 14:13:33;;;;;;;9.20;3.80;;;;;;;;;;5047496;28;20036;-66
2021/05/26 14:16:01;;;;;;;7.20;3.30;;;;;;;;;;5047755;28;20108;-66
2021/05/26 14:18:27;;;;;;;8.88;4.50;;;;;;;;;;5047500;28;20546;-68
2021/05/26 14:20:53;;;;;;;10.20;3.90;;;;;;;;;;5048409;28;20036;-66
2021/05/26 14:23:20;;;;;;;10.80;4.53;;;;;;;;;;5047611;28;20028;-66
2021/05/26 14:25:46;;;;;;;7.47;3.83;;;;;;;;;;5048232;28;20574;-66
2021/05/26 14:28:12;;;;;;;9.48;4.20;;;;;;;;;;5047641;28;20033;-66
2021/05/26 14:30:38;;;;;;;9.13;4.35;;;;;;;;;;5047449;28;20071;-66
2021/05/26 14:33:05;;;;;;;8.85;4.28;;;;;;;;;;5047339;28;20029;-66
2021/05/26 14:35:31;;;;;;;7.35;4.07;;;;;;;;;;5046790;28;20045;-66
2021/05/26 14:38:06;;;;;;;6.95;3.40;;;;;;;;;;5047094;28;21692;-66
2021/05/26 14:40:32;;;;;;;8.00;4.47;;;;;;;;;;5046331;28;21194;-66
2021/05/26 14:43:01;;;;;;;9.85;4.30;;;;;;;;;;5048038;28;20025;-66
2021/05/26 14:45:27;;;;;;;11.02;3.55;;;;;;;;;;5043942;28;20029;-66
2021/05/26 14:47:55;;;;;;;6.43;3.60;;;;;;;;;;5048078;28;20032;-66
2021/05/26 14:50:21;;;;;;;9.90;4.25;;;;;;;;;;5047549;28;20032;-68
2021/05/26 14:52:47;;;;;;;7.72;3.80;;;;;;;;;;5047730;28;20025;-66
2021/05/26 14:55:14;;;;;;;6.03;3.58;;;;;;;;;;5048180;28;20097;-66
2021/05/26 14:57:40;;;;;;;5.32;3.30;;;;;;;;;;5048026;28;20517;-67
2021/05/26 15:00:06;;;;;;;8.02;3.83;;;;;;;;;;5047782;28;20044;-66
2021/05/26 15:02:32;;;;;;;10.13;4.82;;;;;;;;;;5046249;28;20672;-66
2021/05/26 15:04:58;;;;;;;15.30;4.78;;;;;;;;;;5047682;28;20057;-66